createdAt,value
2023-05-25T00:00:11.232Z,102801.44
2023-05-25T00:02:39.671Z,102804.50
2023-05-25T00:05:08.952Z,102810.84
2023-05-25T00:07:35.395Z,102806.69
2023-05-25T00:10:01.931Z,102809.88
2023-05-25T00:12:28.451Z,102813.53
2023-05-25T00:14:55.160Z,102808.75
2023-05-25T00:17:21.948Z,102797.03
2023-05-25T00:19:48.719Z,102809.22
2023-05-25T00:22:15.541Z,102809.38
2023-05-25T00:24:42.046Z,102802.53
2023-05-25T00:27:08.796Z,102797.63
2023-05-25T00:29:35.996Z,102799.13
2023-05-25T00:32:03.164Z,102804.22
2023-05-25T00:34:29.694Z,102802.88
2023-05-25T00:36:56.237Z,102792.63
2023-05-25T00:39:22.897Z,102796.16
2023-05-25T00:41:49.925Z,102775.97
2023-05-25T00:44:21.281Z,102788.81
2023-05-25T00:46:49.831Z,102800.28
2023-05-25T00:49:19.093Z,102798.75
2023-05-25T00:51:46.612Z,102765.09
2023-05-25T00:54:17.219Z,102805.59
2023-05-25T00:56:55.905Z,102781.00
2023-05-25T00:59:31.899Z,102766.44
2023-05-25T01:02:03.482Z,102792.41
2023-05-25T01:04:34.034Z,102782.66
2023-05-25T01:07:01.222Z,102794.34
2023-05-25T01:09:28.962Z,102788.47
2023-05-25T01:11:57.393Z,102797.97
2023-05-25T01:14:25.070Z,102802.63
2023-05-25T01:16:52.177Z,102809.06
2023-05-25T01:19:18.924Z,102800.53
2023-05-25T01:22:03.605Z,102814.50
2023-05-25T01:25:02.170Z,102804.69
2023-05-25T01:27:33.431Z,102807.69
2023-05-25T01:30:02.540Z,102811.09
2023-05-25T01:32:29.495Z,102820.56
2023-05-25T01:34:58.947Z,102802.44
2023-05-25T01:37:27.627Z,102819.59
2023-05-25T01:39:54.286Z,102818.16
2023-05-25T01:42:20.710Z,102815.44
2023-05-25T01:44:47.217Z,102819.31
2023-05-25T01:47:20.233Z,102813.19
2023-05-25T01:49:58.349Z,102806.47
2023-05-25T01:52:35.010Z,102809.16
2023-05-25T01:55:06.514Z,102815.66
2023-05-25T01:57:37.386Z,102815.56
2023-05-25T02:00:05.385Z,102821.84
2023-05-25T02:02:33.637Z,102819.66
2023-05-25T02:05:00.596Z,102830.09
2023-05-25T02:07:27.015Z,102829.47
2023-05-25T02:09:53.462Z,102824.63
2023-05-25T02:12:19.903Z,102832.75
2023-05-25T02:14:48.451Z,102833.91
2023-05-25T02:17:17.883Z,102832.00
2023-05-25T02:19:45.522Z,102829.25
2023-05-25T02:22:12.475Z,102821.69
2023-05-25T02:24:38.934Z,102816.22
2023-05-25T02:27:06.492Z,102833.31
2023-05-25T02:29:32.998Z,102827.44
2023-05-25T02:31:59.555Z,102820.72
2023-05-25T02:34:26.147Z,102829.44
2023-05-25T02:36:52.541Z,102823.09
2023-05-25T02:39:19.035Z,102822.22
2023-05-25T02:41:45.645Z,102822.91
2023-05-25T02:44:12.640Z,102816.03
2023-05-25T02:46:40.133Z,102819.84
2023-05-25T02:49:06.701Z,102817.28
2023-05-25T02:51:33.500Z,102821.41
2023-05-25T02:54:00.018Z,102821.78
2023-05-25T02:56:27.519Z,102824.81
2023-05-25T02:58:53.963Z,102825.34
2023-05-25T03:01:20.751Z,102833.38
2023-05-25T03:03:52.095Z,102834.25
2023-05-25T03:06:18.942Z,102838.22
2023-05-25T03:08:45.455Z,102834.06
2023-05-25T03:11:11.889Z,102832.75
2023-05-25T03:13:38.379Z,102836.63
2023-05-25T03:16:05.140Z,102836.09
2023-05-25T03:18:31.558Z,102830.44
2023-05-25T03:20:58.027Z,102819.72
2023-05-25T03:23:24.522Z,102849.06
2023-05-25T03:25:51.365Z,102840.25
2023-05-25T03:28:17.889Z,102845.00
2023-05-25T03:30:44.369Z,102844.56
2023-05-25T03:33:13.780Z,102843.69
2023-05-25T03:35:40.562Z,102833.00
2023-05-25T03:38:07.059Z,102858.16
2023-05-25T03:40:33.510Z,102860.38
2023-05-25T03:42:59.932Z,102850.75
2023-05-25T03:45:26.423Z,102849.78
2023-05-25T03:47:52.937Z,102858.91
2023-05-25T03:50:19.516Z,102863.69
2023-05-25T03:52:46.075Z,102859.88
2023-05-25T03:55:15.158Z,102859.06
2023-05-25T03:57:42.137Z,102872.78
2023-05-25T04:00:09.715Z,102875.97
2023-05-25T04:02:36.522Z,102873.91
2023-05-25T04:05:03.121Z,102870.34
2023-05-25T04:07:31.130Z,102874.06
2023-05-25T04:10:00.262Z,102867.06
2023-05-25T04:12:27.463Z,102846.69
2023-05-25T04:14:53.988Z,102863.22
2023-05-25T04:17:24.761Z,102868.00
2023-05-25T04:19:52.203Z,102867.53
2023-05-25T04:22:19.011Z,102871.19
2023-05-25T04:24:46.367Z,102876.16
2023-05-25T04:27:14.310Z,102867.84
2023-05-25T04:29:41.716Z,102875.16
2023-05-25T04:32:09.660Z,102876.03
2023-05-25T04:34:36.639Z,102866.34
2023-05-25T04:37:05.430Z,102877.66
2023-05-25T04:39:32.786Z,102874.28
2023-05-25T04:41:59.338Z,102873.34
2023-05-25T04:44:25.900Z,102866.38
2023-05-25T04:46:53.619Z,102874.69
2023-05-25T04:49:21.455Z,102874.34
2023-05-25T04:51:48.074Z,102867.50
2023-05-25T04:54:14.679Z,102873.72
2023-05-25T04:56:41.147Z,102873.88
2023-05-25T04:59:07.616Z,102867.50
2023-05-25T05:01:40.768Z,102873.72
2023-05-25T05:04:08.549Z,102872.22
2023-05-25T05:06:36.501Z,102880.44
2023-05-25T05:09:03.513Z,102877.09
2023-05-25T05:11:30.096Z,102886.38
2023-05-25T05:13:56.766Z,102866.66
2023-05-25T05:16:23.310Z,102871.06
2023-05-25T05:18:49.821Z,102890.00
2023-05-25T05:21:16.302Z,102884.63
2023-05-25T05:23:43.708Z,102887.25
2023-05-25T05:26:11.606Z,102878.78
2023-05-25T05:28:38.248Z,102882.19
2023-05-25T05:31:04.743Z,102886.72
2023-05-25T05:33:31.471Z,102885.69
2023-05-25T05:35:57.986Z,102890.56
2023-05-25T05:38:24.424Z,102889.03
2023-05-25T05:40:50.944Z,102897.13
2023-05-25T05:43:17.517Z,102896.06
2023-05-25T05:45:44.146Z,102906.38
2023-05-25T05:48:11.061Z,102915.34
2023-05-25T05:50:40.279Z,102917.66
2023-05-25T05:53:09.828Z,102929.97
2023-05-25T05:55:36.854Z,102924.19
2023-05-25T05:58:03.338Z,102930.09
2023-05-25T06:00:29.828Z,102934.94
2023-05-25T06:02:56.530Z,102947.88
2023-05-25T06:05:23.348Z,102929.84
2023-05-25T06:07:49.850Z,102940.00
2023-05-25T06:10:16.319Z,102945.41
2023-05-25T06:12:42.800Z,102954.47
2023-05-25T06:15:09.681Z,102929.03
2023-05-25T06:17:36.470Z,102947.44
2023-05-25T06:20:03.335Z,102948.19
2023-05-25T06:22:29.999Z,102946.56
2023-05-25T06:24:56.458Z,102946.59
2023-05-25T06:27:23.481Z,102953.28
2023-05-25T06:29:50.196Z,102953.09
2023-05-25T06:32:16.713Z,102959.72
2023-05-25T06:34:43.273Z,102951.81
2023-05-25T06:37:09.825Z,102949.22
2023-05-25T06:39:36.342Z,102963.63
2023-05-25T06:42:02.852Z,102956.09
2023-05-25T06:44:29.289Z,102952.03
2023-05-25T06:46:55.865Z,102955.03
2023-05-25T06:49:22.302Z,102946.09
2023-05-25T06:51:51.036Z,102939.34
2023-05-25T06:54:17.617Z,102946.44
2023-05-25T06:56:44.069Z,102956.84
2023-05-25T06:59:10.492Z,102947.16
2023-05-25T07:01:37.591Z,102965.69
2023-05-25T07:04:04.100Z,102964.09
2023-05-25T07:06:30.992Z,102968.22
2023-05-25T07:08:57.512Z,102976.88
2023-05-25T07:11:23.958Z,102967.38
2023-05-25T07:13:50.501Z,102973.50
2023-05-25T07:16:16.989Z,102982.50
2023-05-25T07:18:43.612Z,102984.81
2023-05-25T07:21:10.750Z,102994.91
2023-05-25T07:23:38.254Z,102991.91
2023-05-25T07:26:05.964Z,102997.69
2023-05-25T07:28:32.665Z,102990.75
2023-05-25T07:30:59.348Z,102986.94
2023-05-25T07:33:25.971Z,102990.38
2023-05-25T07:35:52.472Z,102983.88
2023-05-25T07:38:18.948Z,102994.06
2023-05-25T07:40:47.266Z,102979.84
2023-05-25T07:43:13.777Z,102990.31
2023-05-25T07:45:40.236Z,102986.69
2023-05-25T07:48:07.722Z,102989.63
2023-05-25T07:50:34.325Z,102998.34
2023-05-25T07:53:00.963Z,102993.63
2023-05-25T07:55:27.408Z,102999.88
2023-05-25T07:57:53.946Z,102987.56
2023-05-25T08:00:20.874Z,102984.84
2023-05-25T08:02:47.471Z,102993.63
2023-05-25T08:05:14.145Z,102984.75
2023-05-25T08:07:42.799Z,102978.75
2023-05-25T08:10:09.876Z,103011.41
2023-05-25T08:12:47.923Z,102992.25
2023-05-25T08:15:16.822Z,103036.03
2023-05-25T08:17:43.349Z,103028.56
2023-05-25T08:20:10.521Z,103027.72
2023-05-25T08:22:37.170Z,103005.94
2023-05-25T08:25:05.097Z,103013.06
2023-05-25T08:27:34.420Z,103020.56
2023-05-25T08:30:02.680Z,103010.72
2023-05-25T08:32:29.159Z,103033.19
2023-05-25T08:34:55.701Z,103043.69
2023-05-25T08:37:23.572Z,103043.16
2023-05-25T08:39:50.492Z,103049.44
2023-05-25T08:42:16.955Z,103052.16
2023-05-25T08:44:43.651Z,103037.06
2023-05-25T08:47:11.879Z,103055.47
2023-05-25T08:49:39.494Z,103049.44
2023-05-25T08:52:10.613Z,103031.59
2023-05-25T08:54:37.935Z,103029.53
2023-05-25T08:57:13.295Z,103036.88
2023-05-25T08:59:54.743Z,103047.78
2023-05-25T09:02:36.139Z,103049.16
2023-05-25T09:05:03.034Z,103048.13
2023-05-25T09:07:29.749Z,103055.47
2023-05-25T09:09:57.986Z,103057.94
2023-05-25T09:12:24.788Z,103051.53
2023-05-25T09:14:53.624Z,103037.94
2023-05-25T09:17:21.266Z,103052.19
2023-05-25T09:19:48.062Z,103053.19
2023-05-25T09:22:16.898Z,103026.28
2023-05-25T09:24:44.571Z,103054.88
2023-05-25T09:27:12.676Z,103048.16
2023-05-25T09:29:39.131Z,103014.59
2023-05-25T09:32:06.858Z,103052.06
2023-05-25T09:34:36.626Z,103051.69
2023-05-25T09:37:14.847Z,103051.84
2023-05-25T09:39:43.160Z,103048.16
2023-05-25T09:42:10.898Z,103051.72
2023-05-25T09:44:37.817Z,103039.53
2023-05-25T09:47:05.003Z,103033.69
2023-05-25T09:49:31.558Z,103046.59
2023-05-25T09:51:58.070Z,103064.13
2023-05-25T09:54:25.734Z,103066.84
2023-05-25T09:56:52.760Z,103059.50
2023-05-25T09:59:19.233Z,103037.41
2023-05-25T10:01:51.484Z,103050.56
2023-05-25T10:04:18.164Z,103055.00
2023-05-25T10:06:49.789Z,103050.38
2023-05-25T10:09:20.404Z,103040.31
2023-05-25T10:11:48.339Z,103061.41
2023-05-25T10:14:19.985Z,103072.84
2023-05-25T10:16:50.427Z,103082.00
2023-05-25T10:19:21.986Z,103079.81
2023-05-25T10:22:07.596Z,103087.44
2023-05-25T10:24:37.116Z,103083.97
2023-05-25T10:27:18.430Z,103088.25
2023-05-25T10:29:54.304Z,103079.06
2023-05-25T10:32:21.045Z,103086.19
2023-05-25T10:34:48.847Z,103074.81
2023-05-25T10:37:16.247Z,103073.84
2023-05-25T10:39:43.866Z,103088.28
2023-05-25T10:42:11.380Z,103076.66
2023-05-25T10:44:38.730Z,103085.16
2023-05-25T10:47:06.222Z,103086.41
2023-05-25T10:49:34.607Z,103093.06
2023-05-25T10:52:03.554Z,103087.28
2023-05-25T10:54:32.016Z,103092.31
2023-05-25T10:57:18.263Z,103091.63
2023-05-25T10:59:51.982Z,103094.75
2023-05-25T11:02:24.603Z,103097.31
2023-05-25T11:04:51.133Z,103089.38
2023-05-25T11:07:19.434Z,103064.22
2023-05-25T11:09:58.437Z,103088.91
2023-05-25T11:12:26.582Z,103100.88
2023-05-25T11:15:10.683Z,103098.84
2023-05-25T11:17:59.995Z,103075.66
2023-05-25T11:20:30.113Z,103086.56
2023-05-25T11:22:57.712Z,103085.53
2023-05-25T11:25:43.069Z,103064.81
2023-05-25T11:28:11.543Z,103066.88
2023-05-25T11:30:40.981Z,103078.22
2023-05-25T11:33:10.186Z,103047.72
2023-05-25T11:35:39.612Z,103045.66
2023-05-25T11:38:07.161Z,103045.19
2023-05-25T11:40:34.216Z,103023.16
2023-05-25T11:43:02.044Z,103046.38
2023-05-25T11:45:29.592Z,103067.22
2023-05-25T11:47:57.117Z,103061.44
2023-05-25T11:50:23.665Z,103055.34
2023-05-25T11:52:50.354Z,103053.53
2023-05-25T11:55:16.903Z,103046.59
2023-05-25T11:57:43.543Z,103031.06
2023-05-25T12:00:11.352Z,103024.28
2023-05-25T12:02:39.621Z,103057.84
2023-05-25T12:05:11.151Z,103023.56
2023-05-25T12:07:43.929Z,103023.69
2023-05-25T12:10:12.580Z,103008.75
2023-05-25T12:12:42.907Z,103034.38
2023-05-25T12:15:20.639Z,103037.31
2023-05-25T12:17:47.994Z,103045.50
2023-05-25T12:20:16.033Z,103042.63
2023-05-25T12:22:44.061Z,103037.06
2023-05-25T12:25:12.117Z,103027.84
2023-05-25T12:27:40.085Z,103029.19
2023-05-25T12:30:09.616Z,103042.03
2023-05-25T12:32:52.923Z,103036.25
2023-05-25T12:35:19.569Z,103040.38
2023-05-25T12:37:46.645Z,103031.56
2023-05-25T12:40:24.611Z,103037.78
2023-05-25T12:42:57.629Z,103028.03
2023-05-25T12:45:24.702Z,103022.97
2023-05-25T12:47:51.335Z,103038.88
2023-05-25T12:50:19.304Z,103049.78
2023-05-25T12:52:46.857Z,103032.75
2023-05-25T12:55:20.529Z,103029.00
2023-05-25T12:57:52.298Z,103033.56
2023-05-25T13:00:23.573Z,103004.44
2023-05-25T13:02:51.617Z,103032.66
2023-05-25T13:05:18.999Z,103017.91
2023-05-25T13:07:45.547Z,103027.28
2023-05-25T13:10:19.147Z,103045.03
2023-05-25T13:12:47.474Z,103042.88
2023-05-25T13:15:17.510Z,103039.84
2023-05-25T13:17:44.854Z,103041.56
2023-05-25T13:20:15.618Z,103026.31
2023-05-25T13:22:44.965Z,103029.28
2023-05-25T13:25:13.088Z,103017.00
2023-05-25T13:27:44.906Z,103020.56
2023-05-25T13:30:12.454Z,103024.56
2023-05-25T13:32:39.322Z,103036.03
2023-05-25T13:35:07.324Z,103021.94
2023-05-25T13:37:34.209Z,103029.00
2023-05-25T13:40:00.994Z,103032.41
2023-05-25T13:42:27.489Z,103036.53
2023-05-25T13:44:53.918Z,103032.31
2023-05-25T13:47:20.413Z,103025.66
2023-05-25T13:49:47.610Z,103022.66
2023-05-25T13:52:14.326Z,103042.66
2023-05-25T13:54:40.765Z,103022.22
2023-05-25T13:57:07.429Z,103027.03
2023-05-25T13:59:33.916Z,103045.03
2023-05-25T14:02:00.536Z,103027.34
2023-05-25T14:04:27.223Z,103026.84
2023-05-25T14:06:53.685Z,103018.13
2023-05-25T14:09:20.104Z,103021.66
2023-05-25T14:11:46.855Z,103020.72
2023-05-25T14:14:27.012Z,103017.59
2023-05-25T14:16:57.595Z,103013.75
2023-05-25T14:19:24.047Z,103023.75
2023-05-25T14:22:03.753Z,103016.66
2023-05-25T14:24:36.947Z,103023.09
2023-05-25T14:27:04.563Z,103035.28
2023-05-25T14:29:31.107Z,103024.28
2023-05-25T14:31:57.735Z,103010.53
2023-05-25T14:34:24.249Z,103014.97
2023-05-25T14:36:50.667Z,103024.44
2023-05-25T14:39:17.512Z,103028.91
2023-05-25T14:41:44.471Z,103025.22
2023-05-25T14:44:11.228Z,103016.88
2023-05-25T14:46:37.790Z,103028.25
2023-05-25T14:49:04.368Z,103024.81
2023-05-25T14:51:30.835Z,103022.25
2023-05-25T14:54:00.188Z,103018.06
2023-05-25T14:56:26.782Z,103025.75
2023-05-25T14:58:53.205Z,103026.84
2023-05-25T15:01:19.733Z,103018.38
2023-05-25T15:03:46.313Z,103026.25
2023-05-25T15:06:12.911Z,103027.28
2023-05-25T15:08:39.352Z,103029.81
2023-05-25T15:11:07.245Z,103015.94
2023-05-25T15:13:33.708Z,103036.03
2023-05-25T15:16:00.384Z,103037.72
2023-05-25T15:18:26.896Z,103035.06
2023-05-25T15:20:53.429Z,103038.81
2023-05-25T15:23:19.917Z,103035.97
2023-05-25T15:25:46.362Z,103029.66
2023-05-25T15:28:12.753Z,103034.41
2023-05-25T15:30:39.250Z,103039.28
2023-05-25T15:33:05.700Z,103034.44
2023-05-25T15:35:32.520Z,103045.06
2023-05-25T15:37:59.900Z,103040.53
2023-05-25T15:40:26.850Z,103049.34
2023-05-25T15:42:53.622Z,103037.94
2023-05-25T15:45:20.048Z,103050.81
2023-05-25T15:47:46.548Z,103050.50
2023-05-25T15:50:13.160Z,103045.91
2023-05-25T15:52:39.637Z,103043.72
2023-05-25T15:55:06.662Z,103056.06
2023-05-25T15:57:33.116Z,103036.97
2023-05-25T15:59:59.583Z,103052.06
2023-05-25T16:02:26.038Z,103037.44
2023-05-25T16:04:52.497Z,103043.16
2023-05-25T16:07:18.977Z,103042.31
2023-05-25T16:09:45.629Z,103043.75
2023-05-25T16:12:12.083Z,103031.28
2023-05-25T16:14:38.568Z,103058.72
2023-05-25T16:17:05.090Z,103042.19
2023-05-25T16:19:31.509Z,103047.28
2023-05-25T16:21:58.039Z,103042.16
2023-05-25T16:24:26.924Z,103031.81
2023-05-25T16:26:53.625Z,103048.78
2023-05-25T16:29:20.107Z,103056.31
2023-05-25T16:31:46.580Z,103061.25
2023-05-25T16:34:13.054Z,103055.63
2023-05-25T16:36:39.747Z,103058.53
2023-05-25T16:39:07.872Z,103054.09
2023-05-25T16:41:34.307Z,103049.81
2023-05-25T16:44:01.450Z,103049.69
2023-05-25T16:46:28.074Z,103062.44
2023-05-25T16:48:54.597Z,103068.03
2023-05-25T16:51:20.998Z,103062.47
2023-05-25T16:53:47.450Z,103067.50
2023-05-25T16:56:13.902Z,103065.91
2023-05-25T16:58:40.452Z,103060.72
2023-05-25T17:01:06.979Z,103065.25
2023-05-25T17:03:34.340Z,103060.47
2023-05-25T17:06:01.026Z,103061.81
2023-05-25T17:08:27.414Z,103060.53
2023-05-25T17:10:53.932Z,103050.38
2023-05-25T17:13:21.008Z,103053.06
2023-05-25T17:15:47.801Z,103054.78
2023-05-25T17:18:15.024Z,103058.41
2023-05-25T17:20:41.621Z,103063.53
2023-05-25T17:23:08.106Z,103058.69
2023-05-25T17:25:34.533Z,103063.38
2023-05-25T17:28:00.995Z,103064.78
2023-05-25T17:30:27.406Z,103076.09
2023-05-25T17:32:54.547Z,103069.38
2023-05-25T17:35:21.095Z,103076.00
2023-05-25T17:37:47.510Z,103063.69
2023-05-25T17:40:14.710Z,103056.06
2023-05-25T17:42:41.230Z,103078.41
2023-05-25T17:45:11.432Z,103070.66
2023-05-25T17:47:38.234Z,103069.34
2023-05-25T17:50:05.491Z,103097.13
2023-05-25T17:52:32.011Z,103094.97
2023-05-25T17:54:58.424Z,103094.00
2023-05-25T17:57:25.774Z,103098.66
2023-05-25T17:59:52.223Z,103094.84
2023-05-25T18:02:18.942Z,103096.63
2023-05-25T18:04:46.588Z,103096.03
2023-05-25T18:07:13.073Z,103077.22
2023-05-25T18:09:39.608Z,103104.38
2023-05-25T18:12:07.547Z,103089.84
2023-05-25T18:14:37.396Z,103097.59
2023-05-25T18:17:04.022Z,103094.44
2023-05-25T18:19:30.616Z,103084.94
2023-05-25T18:21:57.045Z,103080.63
2023-05-25T18:24:23.536Z,103086.50
2023-05-25T18:26:50.162Z,103089.22
2023-05-25T18:29:16.710Z,103086.69
2023-05-25T18:31:48.578Z,103074.31
2023-05-25T18:34:15.153Z,103097.53
2023-05-25T18:36:41.567Z,103099.41
2023-05-25T18:39:08.099Z,103101.91
2023-05-25T18:41:34.628Z,103099.06
2023-05-25T18:44:01.042Z,103097.94
2023-05-25T18:46:28.536Z,103097.34
2023-05-25T18:48:55.720Z,103093.22
2023-05-25T18:51:25.528Z,103096.88
2023-05-25T18:53:52.165Z,103097.56
2023-05-25T18:56:18.682Z,103099.91
2023-05-25T18:58:45.267Z,103101.03
2023-05-25T19:01:11.749Z,103097.59
2023-05-25T19:03:38.325Z,103099.03
2023-05-25T19:06:05.141Z,103105.72
2023-05-25T19:08:31.579Z,103093.06
2023-05-25T19:10:58.001Z,103100.75
2023-05-25T19:13:24.503Z,103104.78
2023-05-25T19:15:51.114Z,103111.84
2023-05-25T19:18:17.741Z,103115.38
2023-05-25T19:20:44.361Z,103109.94
2023-05-25T19:23:11.517Z,103110.47
2023-05-25T19:25:38.016Z,103117.13
2023-05-25T19:28:04.550Z,103128.03
2023-05-25T19:30:31.188Z,103130.69
2023-05-25T19:32:58.031Z,103123.97
2023-05-25T19:35:24.551Z,103129.41
2023-05-25T19:37:50.999Z,103120.13
2023-05-25T19:40:17.713Z,103122.38
2023-05-25T19:42:44.711Z,103114.13
2023-05-25T19:45:11.339Z,103137.59
2023-05-25T19:47:37.925Z,103139.47
2023-05-25T19:50:04.849Z,103137.75
2023-05-25T19:52:31.542Z,103134.84
2023-05-25T19:54:58.086Z,103140.81
2023-05-25T19:57:26.124Z,103142.75
2023-05-25T19:59:52.879Z,103121.81
2023-05-25T20:02:19.434Z,103147.03
2023-05-25T20:04:46.682Z,103143.44
2023-05-25T20:07:13.191Z,103144.72
2023-05-25T20:09:39.709Z,103148.28
2023-05-25T20:12:06.640Z,103138.75
2023-05-25T20:14:35.995Z,103141.84
2023-05-25T20:17:03.187Z,103119.22
2023-05-25T20:19:29.735Z,103144.28
2023-05-25T20:21:57.779Z,103132.34
2023-05-25T20:24:24.625Z,103149.31
2023-05-25T20:26:56.402Z,103144.31
2023-05-25T20:29:23.801Z,103121.13
2023-05-25T20:31:50.496Z,103149.47
2023-05-25T20:34:17.088Z,103155.03
2023-05-25T20:36:43.723Z,103156.34
2023-05-25T20:39:10.189Z,103153.69
2023-05-25T20:41:36.633Z,103149.16
2023-05-25T20:44:06.346Z,103159.47
2023-05-25T20:46:33.631Z,103156.66
2023-05-25T20:49:00.234Z,103156.69
2023-05-25T20:51:26.658Z,103157.78
2023-05-25T20:53:53.876Z,103161.97
2023-05-25T20:56:20.450Z,103163.53
2023-05-25T20:58:47.004Z,103165.50
2023-05-25T21:01:13.617Z,103152.78
2023-05-25T21:03:40.111Z,103138.94
2023-05-25T21:06:06.780Z,103156.84
2023-05-25T21:08:33.479Z,103129.53
2023-05-25T21:11:01.576Z,103142.13
2023-05-25T21:13:28.017Z,103172.13
2023-05-25T21:15:54.532Z,103175.66
2023-05-25T21:18:21.469Z,103175.41
2023-05-25T21:20:47.915Z,103180.06
2023-05-25T21:23:14.350Z,103179.34
2023-05-25T21:25:40.858Z,103180.44
2023-05-25T21:28:09.130Z,103177.75
2023-05-25T21:30:35.653Z,103157.28
2023-05-25T21:33:02.184Z,103183.00
2023-05-25T21:35:28.630Z,103178.97
2023-05-25T21:37:55.079Z,103177.38
2023-05-25T21:40:21.504Z,103177.72
2023-05-25T21:42:50.960Z,103180.44
2023-05-25T21:45:17.742Z,103166.13
2023-05-25T21:47:44.277Z,103174.78
2023-05-25T21:50:10.830Z,103169.91
2023-05-25T21:52:37.421Z,103178.22
2023-05-25T21:55:04.124Z,103171.00
2023-05-25T21:57:30.536Z,103176.50
2023-05-25T21:59:56.968Z,103171.13
2023-05-25T22:02:23.582Z,103159.13
2023-05-25T22:04:50.114Z,103178.69
2023-05-25T22:07:16.548Z,103171.13
2023-05-25T22:09:42.980Z,103174.69
2023-05-25T22:12:12.103Z,103173.22
2023-05-25T22:14:38.841Z,103130.59
2023-05-25T22:17:05.559Z,103170.84
2023-05-25T22:19:32.148Z,103176.22
2023-05-25T22:21:58.578Z,103171.97
2023-05-25T22:24:24.989Z,103175.63
2023-05-25T22:26:52.187Z,103173.31
2023-05-25T22:29:18.673Z,103173.69
2023-05-25T22:31:45.926Z,103168.72
2023-05-25T22:34:12.346Z,103176.22
2023-05-25T22:36:39.038Z,103178.13
2023-05-25T22:39:05.621Z,103177.34
2023-05-25T22:41:32.067Z,103176.88
2023-05-25T22:43:58.707Z,103182.63
2023-05-25T22:46:25.224Z,103171.41
2023-05-25T22:48:51.758Z,103173.94
2023-05-25T22:51:18.210Z,103184.13
2023-05-25T22:53:44.669Z,103173.38
2023-05-25T22:56:11.491Z,103178.66
2023-05-25T22:58:38.118Z,103157.34
2023-05-25T23:01:04.573Z,103184.97
2023-05-25T23:03:31.070Z,103184.97
2023-05-25T23:05:57.626Z,103181.16
2023-05-25T23:08:24.072Z,103184.41
2023-05-25T23:10:50.664Z,103178.75
2023-05-25T23:13:17.269Z,103183.47
2023-05-25T23:15:44.878Z,103184.19
2023-05-25T23:18:11.549Z,103172.56
2023-05-25T23:20:38.108Z,103177.72
2023-05-25T23:23:04.700Z,103181.22
2023-05-25T23:25:31.121Z,103179.88
2023-05-25T23:27:57.563Z,103181.88
2023-05-25T23:30:24.050Z,103159.81
2023-05-25T23:32:50.528Z,103186.19
2023-05-25T23:35:17.119Z,103180.72
2023-05-25T23:37:43.946Z,103183.41
2023-05-25T23:40:10.970Z,103183.53
2023-05-25T23:42:39.032Z,103185.78
2023-05-25T23:45:07.997Z,103185.78
2023-05-25T23:47:34.557Z,103195.63
2023-05-25T23:50:01.015Z,103183.00
2023-05-25T23:52:27.563Z,103174.72
2023-05-25T23:54:53.979Z,103185.56
2023-05-25T23:57:20.402Z,103180.50
2023-05-25T23:59:46.827Z,103176.13
